Time;durP1;ratioP1;P1;durP2;ratioP2;P2;SDS_P1;SDS_P2;PMS_P1;PMS_P2;Temp;Humidity;BMP_temperature;BMP_pressure;BME280_temperature;BME280_humidity;BME280_pressure;Samples;Min_cycle;Max_cycle;Signal;HPM_P1;HPM_P2
2020/12/14 00:00:21;;;;;;;8.57;7.88;;;;;;;5.79;76.28;95075.66;4989725;28;20547;-73
2020/12/14 00:02:46;;;;;;;8.38;7.47;;;;;;;6.05;75.56;95102.69;4989187;28;20069;-73
2020/12/14 00:05:13;;;;;;;7.60;6.90;;;;;;;5.92;75.69;95088.25;4989999;28;20046;-74
2020/12/14 00:07:38;;;;;;;7.15;6.55;;;;;;;6.10;75.19;95092.09;4975108;28;20042;-74
2020/12/14 00:10:05;;;;;;;7.60;6.90;;;;;;;6.19;75.23;95099.13;4972440;28;20484;-73
2020/12/14 00:12:30;;;;;;;6.85;6.22;;;;;;;6.15;75.13;95078.84;4989710;28;20045;-72
2020/12/14 00:14:56;;;;;;;6.72;6.13;;;;;;;6.19;75.09;95080.66;4989912;28;20026;-73
2020/12/14 00:17:21;;;;;;;6.03;5.50;;;;;;;6.08;74.22;95036.88;4990143;28;20073;-73
2020/12/14 00:19:47;;;;;;;6.22;5.72;;;;;;;6.38;74.12;95066.72;4975761;28;20050;-72
2020/12/14 00:22:13;;;;;;;6.50;6.00;;;;;;;5.89;73.66;95018.28;4995281;28;20030;-72
2020/12/14 00:24:38;;;;;;;6.00;5.57;;;;;;;6.31;73.35;95061.78;4975977;28;20038;-73
2020/12/14 00:27:04;;;;;;;5.75;5.30;;;;;;;6.64;73.39;95081.28;4993191;28;20049;-73
2020/12/14 00:29:29;;;;;;;5.13;4.72;;;;;;;6.78;73.30;95102.56;4993061;28;20042;-73
2020/12/14 00:31:54;;;;;;;5.40;5.00;;;;;;;6.45;72.69;95040.78;4992551;28;20057;-72
2020/12/14 00:34:21;;;;;;;5.15;4.75;;;;;;;6.94;72.54;95092.59;4995019;28;20026;-73
2020/12/14 00:36:46;;;;;;;5.90;5.40;;;;;;;6.72;72.21;95062.16;4993226;28;20089;-72
2020/12/14 00:39:12;;;;;;;5.78;5.28;;;;;;;6.93;72.19;95091.03;4992926;28;20042;-73
2020/12/14 00:41:37;;;;;;;5.63;5.20;;;;;;;6.84;72.00;95063.63;4992904;28;20121;-73
2020/12/14 00:44:03;;;;;;;5.40;5.00;;;;;;;6.73;71.73;95047.88;4993108;28;20088;-73
2020/12/14 00:46:28;;;;;;;6.05;5.55;;;;;;;6.73;71.51;95047.88;4994884;28;20110;-73
2020/12/14 00:48:53;;;;;;;5.60;5.10;;;;;;;6.64;70.77;95049.56;4992750;28;20042;-74
2020/12/14 00:51:27;;;;;;;5.25;4.85;;;;;;;6.44;71.17;95004.84;4975073;28;20118;-73
2020/12/14 00:53:53;;;;;;;5.22;4.80;;;;;;;6.86;70.96;95075.50;4975578;28;20043;-72
2020/12/14 00:56:19;;;;;;;5.18;4.78;;;;;;;6.65;71.61;95087.34;4992590;28;20030;-72
2020/12/14 00:58:44;;;;;;;5.95;5.45;;;;;;;6.59;71.24;95052.25;4974989;28;20038;-72
2020/12/14 01:01:12;;;;;;;5.30;4.90;;;;;;;6.92;71.11;95087.59;4994521;28;20116;-73
2020/12/14 01:03:37;;;;;;;6.07;5.57;;;;;;;6.61;70.96;95041.41;4974833;28;20035;-72
2020/12/14 01:06:03;;;;;;;5.40;5.00;;;;;;;6.93;70.52;95093.66;4992602;28;20065;-73
2020/12/14 01:08:28;;;;;;;5.88;5.40;;;;;;;6.41;70.39;95039.78;4992362;28;20559;-73
2020/12/14 01:10:53;;;;;;;5.95;5.45;;;;;;;6.64;71.13;95064.63;4992471;28;20392;-73
2020/12/14 01:13:19;;;;;;;6.53;5.93;;;;;;;6.57;70.46;95059.69;4976947;28;20380;-72
2020/12/14 01:15:44;;;;;;;6.03;5.53;;;;;;;6.80;70.86;95108.34;4992194;28;20070;-73
2020/12/14 01:18:10;;;;;;;6.53;5.93;;;;;;;6.43;70.40;95077.25;4975003;28;20043;-72
2020/12/14 01:20:42;;;;;;;6.13;5.63;;;;;;;6.31;70.99;95076.84;4991995;28;20038;-73
2020/12/14 01:23:08;;;;;;;6.60;6.10;;;;;;;6.59;70.67;95133.38;4991993;28;20053;-72
2020/12/14 01:25:34;;;;;;;7.05;6.35;;;;;;;6.58;70.64;95126.53;4994252;28;20109;-73
2020/12/14 01:27:59;;;;;;;6.15;5.65;;;;;;;6.37;70.83;95113.50;4992096;28;20394;-72
2020/12/14 01:30:25;;;;;;;5.93;5.43;;;;;;;6.44;70.93;95129.03;4974383;28;20065;-73
2020/12/14 01:32:51;;;;;;;6.05;5.55;;;;;;;6.44;71.10;95136.94;4991419;28;20046;-72
2020/12/14 01:35:17;;;;;;;6.68;6.07;;;;;;;6.26;70.78;95090.88;4974394;28;20045;-72
2020/12/14 01:37:43;;;;;;;6.25;5.75;;;;;;;6.24;70.71;95077.16;4994059;28;20023;-72
2020/12/14 01:40:08;;;;;;;6.55;6.00;;;;;;;6.58;71.22;95119.38;4991840;28;20117;-71
2020/12/14 01:42:39;;;;;;;5.90;5.40;;;;;;;6.62;71.33;95101.13;4991716;28;20042;-72
2020/12/14 01:45:04;;;;;;;6.63;6.03;;;;;;;6.64;71.25;95091.84;4974316;28;20046;-73
2020/12/14 01:47:36;;;;;;;8.23;7.53;;;;;;;6.61;70.78;95097.72;4974460;28;20475;-72
2020/12/14 01:50:02;;;;;;;8.18;7.47;;;;;;;6.50;70.98;95069.81;4991674;28;20034;-72
2020/12/14 01:52:27;;;;;;;8.07;7.32;;;;;;;6.20;70.86;95039.97;4993628;28;20400;-72
2020/12/14 01:54:53;;;;;;;9.00;8.20;;;;;;;6.43;71.00;95095.75;4991710;28;20042;-72
2020/12/14 01:57:19;;;;;;;9.00;8.23;;;;;;;6.01;71.22;95048.84;4973808;28;20123;-73
2020/12/14 01:59:45;;;;;;;10.80;8.80;;;;;;;5.67;71.12;95033.75;4991352;28;20073;-73
2020/12/14 02:02:10;;;;;;;10.00;9.10;;;;;;;5.71;71.97;95067.25;4990727;28;20483;-73
2020/12/14 02:04:36;;;;;;;12.65;11.35;;;;;;;5.56;72.89;95069.97;4993583;28;20034;-73
2020/12/14 02:07:02;;;;;;;15.13;12.68;;;;;;;5.12;72.90;95036.47;4991278;28;20042;-73
2020/12/14 02:09:27;;;;;;;11.57;10.38;;;;;;;5.08;73.49;95045.97;4991108;28;20038;-72
2020/12/14 02:11:53;;;;;;;13.20;11.85;;;;;;;5.10;74.19;95075.50;4973746;28;20030;-72
2020/12/14 02:14:18;;;;;;;12.98;11.73;;;;;;;4.76;74.27;95030.56;4991299;28;20054;-71
2020/12/14 02:16:43;;;;;;;17.77;14.27;;;;;;;4.80;74.31;95051.88;4993373;28;20455;-72
2020/12/14 02:19:09;;;;;;;18.00;13.80;;;;;;;4.68;74.93;95044.28;4991014;28;20034;-73
2020/12/14 02:21:34;;;;;;;17.85;14.05;;;;;;;4.39;75.35;95017.75;4990949;28;20092;-73
2020/12/14 02:23:59;;;;;;;17.65;14.32;;;;;;;4.35;75.54;95017.53;4991337;28;20039;-72
2020/12/14 02:26:24;;;;;;;15.45;13.50;;;;;;;4.49;76.10;95038.03;4973670;28;20527;-73
2020/12/14 02:28:50;;;;;;;23.02;16.70;;;;;;;4.48;75.81;95057.50;4991025;28;20208;-72
2020/12/14 02:31:15;;;;;;;25.55;16.00;;;;;;;4.17;75.92;95020.72;4975447;28;20026;-71
2020/12/14 02:33:40;;;;;;;21.17;15.40;;;;;;;4.45;76.36;95074.63;4973285;28;20125;-73
2020/12/14 02:36:06;;;;;;;19.52;14.95;;;;;;;4.30;76.57;95061.47;4973192;28;20050;-72
2020/12/14 02:38:31;;;;;;;22.30;15.30;;;;;;;4.05;76.78;95023.63;4973294;28;20050;-72
2020/12/14 02:40:56;;;;;;;22.50;15.80;;;;;;;4.26;77.25;95058.63;4990319;28;20049;-72
2020/12/14 02:43:22;;;;;;;16.80;14.32;;;;;;;3.98;77.39;95019.69;4975285;28;20460;-72
2020/12/14 02:45:47;;;;;;;24.52;16.27;;;;;;;4.08;77.09;95033.63;4990639;28;20046;-72
2020/12/14 02:48:12;;;;;;;22.55;16.00;;;;;;;4.26;77.41;95081.53;4973451;28;20112;-72
2020/12/14 02:50:38;;;;;;;20.70;14.95;;;;;;;4.08;77.10;95052.03;4990501;28;20042;-73
2020/12/14 02:53:04;;;;;;;23.02;15.88;;;;;;;4.18;77.70;95086.25;4990479;28;20030;-73
2020/12/14 02:55:30;;;;;;;34.70;18.83;;;;;;;3.74;77.33;95029.97;4992571;28;20034;-74
2020/12/14 02:57:55;;;;;;;31.40;17.58;;;;;;;4.01;77.55;95093.63;4990549;28;20093;-72
2020/12/14 03:00:21;;;;;;;26.58;16.92;;;;;;;4.02;77.74;95084.69;4990269;28;20135;-73
2020/12/14 03:02:46;;;;;;;26.08;16.73;;;;;;;4.00;78.36;95086.81;4989984;28;20098;-73
2020/12/14 03:05:12;;;;;;;30.20;17.85;;;;;;;3.62;78.56;95023.09;4972848;28;20038;-72
2020/12/14 03:07:37;;;;;;;21.88;15.85;;;;;;;3.98;78.50;95081.00;4992455;28;20065;-72
2020/12/14 03:10:03;;;;;;;23.05;15.85;;;;;;;3.95;78.82;95078.13;4972937;28;20607;-73
2020/12/14 03:12:32;;;;;;;34.08;19.33;;;;;;;4.00;78.48;95073.66;4990277;28;20034;-72
2020/12/14 03:14:58;;;;;;;29.00;16.67;;;;;;;4.12;78.75;95083.91;4971773;28;20042;-72
2020/12/14 03:17:23;;;;;;;28.05;17.42;;;;;;;4.15;78.15;95086.81;4971957;28;20042;-72
2020/12/14 03:19:48;;;;;;;43.00;20.15;;;;;;;3.71;77.78;95023.38;4972552;28;20023;-72
2020/12/14 03:22:13;;;;;;;29.40;17.42;;;;;;;3.82;77.68;95050.47;4992215;28;20050;-72
2020/12/14 03:24:39;;;;;;;25.75;16.85;;;;;;;3.77;77.43;95064.41;4989198;28;20563;-73
2020/12/14 03:27:04;;;;;;;33.78;19.13;;;;;;;3.81;77.92;95054.16;4972923;28;20472;-72
2020/12/14 03:29:29;;;;;;;25.20;17.13;;;;;;;3.54;77.97;95018.38;4972690;28;20050;-73
2020/12/14 03:31:54;;;;;;;25.67;17.95;;;;;;;3.77;78.19;95063.63;4972138;28;20109;-72
2020/12/14 03:34:20;;;;;;;27.88;18.15;;;;;;;3.46;77.71;95010.22;4992149;28;20451;-72
2020/12/14 03:36:45;;;;;;;25.50;17.63;;;;;;;3.61;78.39;95039.16;4972559;28;20043;-72
2020/12/14 03:39:10;;;;;;;24.25;15.90;;;;;;;3.62;78.46;95048.63;4972572;28;20042;-72
2020/12/14 03:41:36;;;;;;;29.02;17.70;;;;;;;3.57;78.36;95057.28;4989954;28;20530;-72
2020/12/14 03:44:01;;;;;;;27.58;17.55;;;;;;;3.51;78.68;95052.28;4972603;28;20099;-72
2020/12/14 03:46:27;;;;;;;22.67;15.98;;;;;;;3.52;78.64;95056.50;4992100;28;20041;-73
2020/12/14 03:48:54;;;;;;;27.35;16.63;;;;;;;3.42;78.61;95040.69;4989583;28;20109;-73
2020/12/14 03:51:21;;;;;;;26.13;16.38;;;;;;;3.55;78.71;95062.03;4972882;28;20105;-73
2020/12/14 03:53:46;;;;;;;19.77;15.90;;;;;;;3.10;78.65;94995.19;4976638;28;20096;-72
2020/12/14 03:56:11;;;;;;;32.33;19.13;;;;;;;3.25;78.81;95031.22;4993706;28;20046;-72
2020/12/14 03:58:37;;;;;;;26.15;17.25;;;;;;;3.61;77.93;95094.38;4995583;28;20159;-73
2020/12/14 04:01:04;;;;;;;33.22;18.48;;;;;;;3.47;78.20;95070.41;4993769;28;20446;-73
2020/12/14 04:03:30;;;;;;;38.40;20.45;;;;;;;3.44;77.97;95075.44;4975833;28;20043;-73
2020/12/14 04:05:55;;;;;;;29.13;18.08;;;;;;;3.19;77.81;95048.03;4975916;28;20039;-72
2020/12/14 04:08:21;;;;;;;39.03;21.15;;;;;;;3.46;77.52;95089.88;4976165;28;20045;-72
2020/12/14 04:10:46;;;;;;;39.70;21.08;;;;;;;3.25;77.74;95069.88;4995924;28;20035;-72
2020/12/14 04:13:12;;;;;;;28.90;17.33;;;;;;;3.31;77.60;95081.97;4993947;28;20049;-72
2020/12/14 04:15:37;;;;;;;33.13;17.83;;;;;;;2.99;77.78;95042.72;4993508;28;20065;-73
2020/12/14 04:18:03;;;;;;;28.40;17.45;;;;;;;3.17;77.75;95070.34;4993473;28;20133;-72
2020/12/14 04:20:28;;;;;;;26.50;16.08;;;;;;;3.09;77.66;95069.03;4993301;28;20042;-73
2020/12/14 04:22:54;;;;;;;38.33;19.65;;;;;;;2.81;77.96;95031.59;4993308;28;20030;-72
2020/12/14 04:25:19;;;;;;;27.55;16.65;;;;;;;3.09;77.65;95088.22;4977720;28;20030;-73
2020/12/14 04:27:45;;;;;;;25.00;16.80;;;;;;;3.04;77.81;95080.31;4993144;28;20034;-73
2020/12/14 04:30:12;;;;;;;24.25;16.08;;;;;;;3.06;77.47;95093.19;4975382;28;20086;-72
2020/12/14 04:32:37;;;;;;;23.25;15.38;;;;;;;2.64;77.39;95044.16;4974863;28;20050;-72
2020/12/14 04:35:03;;;;;;;32.25;16.65;;;;;;;2.59;77.77;95041.50;4992966;28;20388;-72
2020/12/14 04:37:29;;;;;;;20.30;14.35;;;;;;;2.54;77.60;95044.09;4995179;28;20145;-73
2020/12/14 04:39:54;;;;;;;38.08;18.30;;;;;;;2.72;77.32;95087.53;4992800;28;20411;-72
2020/12/14 04:42:19;;;;;;;31.35;17.15;;;;;;;2.29;77.78;95042.13;4992665;28;20050;-72
2020/12/14 04:44:45;;;;;;;27.75;15.95;;;;;;;2.57;78.02;95085.63;4975501;28;20045;-72
2020/12/14 04:47:12;;;;;;;22.02;14.25;;;;;;;2.25;77.68;95048.94;4975668;28;20485;-72
2020/12/14 04:49:41;;;;;;;19.98;13.38;;;;;;;2.61;77.68;95097.19;4977268;28;20027;-72
2020/12/14 04:52:07;;;;;;;20.05;12.52;;;;;;;2.50;78.06;95090.28;4975397;28;20047;-72
2020/12/14 04:54:33;;;;;;;18.48;13.18;;;;;;;2.32;77.84;95070.50;4975437;28;20062;-72
2020/12/14 04:57:05;;;;;;;17.75;13.18;;;;;;;2.18;77.92;95057.03;4975281;28;20096;-72
2020/12/14 04:59:30;;;;;;;18.92;12.43;;;;;;;2.16;77.91;95050.47;4975254;28;20048;-72
2020/12/14 05:02:09;;;;;;;23.35;14.13;;;;;;;2.28;77.75;95077.31;4974401;28;20050;-73
2020/12/14 05:04:36;;;;;;;16.90;12.68;;;;;;;2.25;77.61;95085.66;4994166;28;20024;-72
2020/12/14 05:07:01;;;;;;;23.00;14.63;;;;;;;2.04;77.82;95048.00;4974849;28;20078;-73
2020/12/14 05:09:27;;;;;;;18.30;12.23;;;;;;;1.99;78.18;95045.34;4992209;28;20582;-73
2020/12/14 05:11:52;;;;;;;21.17;13.82;;;;;;;1.75;77.60;95016.09;4974738;28;20046;-72
2020/12/14 05:14:20;;;;;;;17.85;13.15;;;;;;;1.66;77.61;95015.75;4975166;28;20042;-73
2020/12/14 05:16:47;;;;;;;17.23;12.70;;;;;;;1.93;78.01;95056.84;4977057;28;20027;-72
2020/12/14 05:19:25;;;;;;;30.55;16.13;;;;;;;2.09;78.05;95075.06;4992229;28;20038;-72
2020/12/14 05:21:53;;;;;;;23.98;14.65;;;;;;;1.77;78.12;95037.59;4974799;28;20069;-72
2020/12/14 05:24:22;;;;;;;25.42;14.93;;;;;;;1.95;77.85;95073.94;4975017;28;20038;-73
2020/12/14 05:26:48;;;;;;;25.27;14.68;;;;;;;1.71;78.08;95044.63;4992227;28;20046;-72
2020/12/14 05:29:18;;;;;;;22.92;14.15;;;;;;;1.76;78.34;95051.75;4974612;28;20030;-72
2020/12/14 05:32:07;;;;;;;18.80;13.30;;;;;;;1.93;77.76;95086.50;4976451;28;20022;-72
2020/12/14 05:34:38;;;;;;;17.17;12.77;;;;;;;1.79;78.40;95072.22;4992491;28;20034;-73
2020/12/14 05:37:07;;;;;;;17.58;12.43;;;;;;;1.73;78.42;95066.13;4974481;28;20114;-73
2020/12/14 05:39:35;;;;;;;18.27;12.95;;;;;;;1.82;78.30;95092.69;4974005;28;20069;-73
2020/12/14 05:42:20;;;;;;;26.15;15.60;;;;;;;1.85;78.69;95096.66;4974486;28;20452;-73
2020/12/14 05:44:48;;;;;;;21.70;14.07;;;;;;;1.60;78.29;95055.28;4974212;28;20038;-72
2020/12/14 05:47:30;;;;;;;33.67;15.93;;;;;;;1.58;78.55;95068.63;4991934;28;20440;-72
2020/12/14 05:49:57;;;;;;;37.30;18.83;;;;;;;1.50;78.71;95048.13;4991643;28;20038;-73
2020/12/14 05:52:30;;;;;;;34.50;18.00;;;;;;;1.72;78.44;95087.38;4993647;28;20027;-71
2020/12/14 05:55:00;;;;;;;29.30;17.45;;;;;;;1.60;78.65;95078.88;4991515;28;20084;-73
2020/12/14 05:57:36;;;;;;;28.10;14.98;;;;;;;1.61;78.46;95093.56;4974070;28;20046;-73
2020/12/14 06:00:07;;;;;;;24.65;14.90;;;;;;;1.26;78.11;95042.38;4991510;28;20046;-73
2020/12/14 06:02:33;;;;;;;36.38;17.67;;;;;;;1.54;78.44;95089.31;4990697;28;20042;-71
2020/12/14 06:05:02;;;;;;;30.55;16.67;;;;;;;1.33;78.35;95055.28;4973908;28;20049;-71
2020/12/14 06:07:28;;;;;;;27.58;16.10;;;;;;;1.45;78.73;95072.44;4993602;28;20026;-71
2020/12/14 06:10:04;;;;;;;25.35;15.27;;;;;;;1.55;78.96;95090.91;4990825;28;20035;-69
2020/12/14 06:12:31;;;;;;;31.90;17.20;;;;;;;1.48;78.22;95092.91;4973782;28;20041;-69
2020/12/14 06:15:04;;;;;;;34.50;17.23;;;;;;;1.46;78.60;95097.63;4972899;28;20041;-70
2020/12/14 06:17:29;;;;;;;24.25;15.30;;;;;;;1.46;79.12;95096.84;4973824;28;20172;-72
2020/12/14 06:20:18;;;;;;;30.88;16.48;;;;;;;1.46;78.98;95084.50;4973761;28;20121;-70
2020/12/14 06:22:57;;;;;;;25.25;14.90;;;;;;;1.47;79.12;95099.19;4984055;28;20042;-68
2020/12/14 06:25:24;;;;;;;30.98;15.95;;;;;;;1.36;79.17;95078.38;4974832;28;20133;-69
2020/12/14 06:27:49;;;;;;;25.15;15.30;;;;;;;1.32;78.81;95072.84;4991332;28;20039;-69
2020/12/14 06:30:26;;;;;;;27.75;15.95;;;;;;;1.48;78.72;95103.41;4990785;28;20042;-69
2020/12/14 06:33:01;;;;;;;25.25;15.00;;;;;;;1.42;78.84;95104.38;4990254;28;20586;-70
2020/12/14 06:35:49;;;;;;;26.52;15.13;;;;;;;1.41;79.29;95096.78;4970439;28;20104;-71
2020/12/14 06:38:34;;;;;;;21.63;13.60;;;;;;;1.44;79.41;95107.56;4987574;28;20034;-70
2020/12/14 06:41:00;;;;;;;26.98;15.68;;;;;;;1.39;79.25;95099.66;4990636;28;20031;-70
2020/12/14 06:43:30;;;;;;;32.47;15.98;;;;;;;1.22;79.23;95064.88;4992501;28;20025;-72
2020/12/14 06:45:56;;;;;;;26.90;15.60;;;;;;;1.27;79.49;95065.72;4990280;28;20034;-70
2020/12/14 06:48:34;;;;;;;20.20;14.80;;;;;;;1.53;79.16;95103.44;4989349;28;20038;-69
2020/12/14 06:50:59;;;;;;;18.55;13.50;;;;;;;1.51;79.48;95092.44;4989607;28;20038;-70
2020/12/14 06:53:47;;;;;;;24.50;15.20;;;;;;;1.52;79.44;95094.00;4972961;28;20045;-70
2020/12/14 06:56:15;;;;;;;19.85;13.45;;;;;;;1.59;79.72;95100.88;4972869;28;20031;-70
2020/12/14 06:58:43;;;;;;;20.75;13.00;;;;;;;1.56;79.12;95096.94;4992309;28;20033;-70
2020/12/14 07:01:40;;;;;;;19.92;13.98;;;;;;;1.54;79.87;95110.28;4990191;28;20047;-71
2020/12/14 07:04:11;;;;;;;19.00;13.65;;;;;;;1.61;79.26;95110.09;4990214;28;20053;-68
2020/12/14 07:06:36;;;;;;;23.75;14.90;;;;;;;1.50;79.43;95090.06;4990323;28;20042;-69
2020/12/14 07:09:28;;;;;;;19.45;12.45;;;;;;;1.42;81.27;95122.75;4972335;28;20061;-69
2020/12/14 07:12:09;;;;;;;19.50;13.05;;;;;;;1.69;80.42;95114.06;4972102;28;20072;-69
2020/12/14 07:14:47;;;;;;;24.85;14.60;;;;;;;1.69;80.14;95104.41;4972729;28;20046;-69
2020/12/14 07:17:23;;;;;;;18.75;12.73;;;;;;;1.79;79.91;95116.78;4972793;28;20046;-69
2020/12/14 07:19:50;;;;;;;18.30;12.73;;;;;;;1.85;79.97;95122.91;4974732;28;20034;-69
2020/12/14 07:22:33;;;;;;;17.17;12.90;;;;;;;1.72;79.82;95087.38;4990274;28;20046;-70
2020/12/14 07:24:58;;;;;;;21.73;12.23;;;;;;;1.95;79.24;95110.66;4989945;28;20042;-69
2020/12/14 07:27:24;;;;;;;15.10;11.85;;;;;;;1.99;79.00;95109.09;4989946;28;20046;-69
2020/12/14 07:29:49;;;;;;;12.90;10.43;;;;;;;1.97;79.36;95095.44;4977042;28;20038;-69
2020/12/14 07:32:15;;;;;;;15.05;12.18;;;;;;;1.89;79.09;95090.66;4989545;28;20073;-71
2020/12/14 07:34:54;;;;;;;14.00;11.63;;;;;;;2.04;78.90;95092.59;4992099;28;20116;-70
2020/12/14 07:37:21;;;;;;;25.42;16.25;;;;;;;2.15;78.94;95109.22;4989494;28;20069;-69
2020/12/14 07:39:47;;;;;;;21.05;14.27;;;;;;;1.93;78.48;95065.50;4988450;28;20066;-69
2020/12/14 07:42:22;;;;;;;16.92;12.88;;;;;;;2.16;78.76;95090.63;4988385;28;20085;-69
2020/12/14 07:44:47;;;;;;;16.23;12.77;;;;;;;2.29;78.37;95111.16;4988495;28;20039;-69
2020/12/14 07:47:20;;;;;;;23.48;14.43;;;;;;;2.29;77.95;95107.75;4989999;28;20126;-70
2020/12/14 07:49:45;;;;;;;13.20;11.15;;;;;;;2.38;78.20;95118.56;4990634;28;20057;-68
2020/12/14 07:52:10;;;;;;;17.95;13.85;;;;;;;2.52;77.84;95119.72;4988556;28;20038;-68
2020/12/14 07:54:35;;;;;;;13.60;11.07;;;;;;;2.49;78.03;95118.38;4988369;28;20046;-78
2020/12/14 07:57:07;;;;;;;22.08;13.60;;;;;;;2.64;77.62;95127.41;4987421;28;20049;-68
2020/12/14 07:59:33;;;;;;;24.25;14.23;;;;;;;2.66;77.16;95122.66;4989717;28;20049;-70
2020/12/14 08:01:58;;;;;;;15.95;11.25;;;;;;;2.75;77.73;95126.41;4988848;28;20030;-69
2020/12/14 08:04:34;;;;;;;12.02;9.75;;;;;;;2.74;77.57;95120.38;4991864;28;20581;-69
2020/12/14 08:07:00;;;;;;;14.82;11.68;;;;;;;2.89;77.48;95132.00;4989794;28;20377;-68
2020/12/14 08:09:38;;;;;;;12.30;10.98;;;;;;;2.90;77.26;95128.31;4988015;28;20043;-69
2020/12/14 08:12:04;;;;;;;14.25;10.65;;;;;;;2.92;77.37;95121.78;4989424;28;20042;-68
2020/12/14 08:14:30;;;;;;;12.57;10.88;;;;;;;2.84;76.83;95101.25;4989772;28;20030;-69
2020/12/14 08:16:56;;;;;;;10.30;9.00;;;;;;;3.05;76.77;95118.69;4988425;28;20036;-69
2020/12/14 08:19:22;;;;;;;10.70;9.18;;;;;;;3.16;76.85;95132.66;4990273;28;20034;-69
2020/12/14 08:22:05;;;;;;;14.60;9.60;;;;;;;3.22;76.88;95130.81;4988256;28;20125;-68
2020/12/14 08:24:30;;;;;;;9.48;8.50;;;;;;;3.29;76.59;95126.13;4989738;28;20077;-71
2020/12/14 08:27:03;;;;;;;9.75;8.63;;;;;;;3.32;76.36;95129.00;4989625;28;20046;-72
2020/12/14 08:29:30;;;;;;;8.32;7.53;;;;;;;3.37;76.28;95115.88;4989249;28;20034;-69
2020/12/14 08:31:58;;;;;;;9.82;8.05;;;;;;;3.46;76.38;95126.69;4989214;28;20031;-70
2020/12/14 08:34:32;;;;;;;8.52;7.50;;;;;;;3.46;75.83;95113.56;4990251;28;20030;-70
2020/12/14 08:36:58;;;;;;;18.17;7.85;;;;;;;3.50;75.74;95114.63;4988222;28;20455;-72
2020/12/14 08:39:23;;;;;;;9.98;7.05;;;;;;;3.53;75.57;95115.94;4991338;28;20035;-74
2020/12/14 08:42:04;;;;;;;9.45;5.78;;;;;;;3.64;75.51;95122.81;4993008;28;20121;-71
2020/12/14 08:44:30;;;;;;;7.43;5.50;;;;;;;3.74;75.43;95128.09;4991469;28;20047;-71
2020/12/14 08:46:55;;;;;;;5.90;5.30;;;;;;;3.79;75.81;95122.06;4991655;28;20033;-66
2020/12/14 08:49:21;;;;;;;9.00;5.90;;;;;;;3.73;75.32;95102.03;5000601;28;20117;-69
2020/12/14 08:51:48;;;;;;;8.07;5.82;;;;;;;3.78;74.84;95094.94;4980044;28;20101;-72
2020/12/14 08:54:16;;;;;;;6.03;5.40;;;;;;;4.16;74.43;95141.03;4997495;28;20041;-76
2020/12/14 08:56:43;;;;;;;8.55;5.65;;;;;;;4.05;74.24;95110.50;4975491;28;20121;-75
2020/12/14 08:59:18;;;;;;;13.40;5.80;;;;;;;4.28;74.23;95143.38;4975246;28;20465;-72
2020/12/14 09:02:04;;;;;;;6.25;5.18;;;;;;;4.38;73.71;95145.22;4989752;28;20118;-70
2020/12/14 09:04:37;;;;;;;8.48;4.75;;;;;;;4.39;73.72;95134.41;4993305;28;20035;-81
2020/12/14 09:07:04;;;;;;;6.80;5.13;;;;;;;4.18;73.41;95088.88;4993238;28;20026;-83
2020/12/14 09:09:31;;;;;;;4.43;4.00;;;;;;;4.57;73.04;95141.00;4975603;28;20093;-82
2020/12/14 09:11:58;;;;;;;4.90;3.08;;;;;;;4.37;71.54;95130.50;4992539;28;20462;-81
2020/12/14 09:14:26;;;;;;;4.43;4.03;;;;;;;4.63;72.04;95153.09;4975237;28;20034;-68
2020/12/14 09:16:57;;;;;;;4.10;3.40;;;;;;;4.78;72.20;95160.19;4992782;28;20484;-69
2020/12/14 09:19:31;;;;;;;5.38;2.72;;;;;;;4.75;71.56;95152.81;4994428;28;20022;-73
2020/12/14 09:21:56;;;;;;;3.05;2.75;;;;;;;4.85;70.86;95149.38;4992810;28;20299;-75
2020/12/14 09:24:27;;;;;;;3.67;3.17;;;;;;;5.01;71.29;95172.00;4991051;28;20117;-73
2020/12/14 09:27:01;;;;;;;5.10;3.03;;;;;;;5.09;71.19;95168.81;4975234;28;20035;-78
2020/12/14 09:29:26;;;;;;;3.38;3.05;;;;;;;4.98;70.62;95140.13;4974856;28;20042;-72
2020/12/14 09:31:53;;;;;;;3.28;2.90;;;;;;;5.19;70.82;95162.75;4992120;28;20499;-75
2020/12/14 09:34:20;;;;;;;3.45;3.15;;;;;;;5.27;70.63;95153.47;4976604;28;20503;-74
2020/12/14 09:36:49;;;;;;;2.78;2.47;;;;;;;5.17;70.12;95134.00;4992071;28;20548;-82
2020/12/14 09:39:15;;;;;;;2.92;2.53;;;;;;;5.31;69.87;95131.56;4974481;28;20038;-75
2020/12/14 09:41:40;;;;;;;2.55;2.30;;;;;;;5.28;69.11;95115.50;4992009;28;20104;-73
2020/12/14 09:44:05;;;;;;;3.38;2.80;;;;;;;5.48;69.08;95134.66;4974265;28;20030;-74
2020/12/14 09:46:31;;;;;;;3.75;2.60;;;;;;;5.59;68.78;95132.75;4994028;28;20387;-74
2020/12/14 09:48:57;;;;;;;2.65;2.40;;;;;;;5.80;68.81;95149.28;4991757;28;20180;-74
2020/12/14 09:51:27;;;;;;;3.58;2.63;;;;;;;5.77;68.26;95133.19;4991606;28;20085;-74
2020/12/14 09:53:53;;;;;;;2.75;2.38;;;;;;;5.88;67.27;95139.97;4974358;28;20121;-74
2020/12/14 09:56:19;;;;;;;2.60;2.40;;;;;;;5.91;67.13;95129.69;4974264;28;20516;-73
2020/12/14 09:58:45;;;;;;;2.58;2.33;;;;;;;6.04;67.43;95140.69;4993691;28;20062;-74
2020/12/14 10:01:10;;;;;;;2.13;1.92;;;;;;;6.03;67.00;95118.00;4991486;28;20046;-74
2020/12/14 10:03:36;;;;;;;2.10;1.90;;;;;;;6.10;66.11;95121.91;4991204;28;20054;-74
2020/12/14 10:06:01;;;;;;;2.90;2.00;;;;;;;6.25;66.76;95132.38;4991672;28;20039;-74
2020/12/14 10:08:30;;;;;;;2.67;2.15;;;;;;;6.38;65.72;95136.22;4991230;28;20053;-74
2020/12/14 10:10:56;;;;;;;2.42;1.98;;;;;;;6.39;65.36;95115.84;4974252;28;20022;-75
2020/12/14 10:13:23;;;;;;;2.15;1.95;;;;;;;6.38;64.76;95111.66;4993605;28;20088;-76
2020/12/14 10:15:49;;;;;;;2.28;2.03;;;;;;;6.59;65.38;95136.81;4973877;28;20039;-68
2020/12/14 10:18:14;;;;;;;2.45;1.90;;;;;;;6.72;64.85;95136.19;4991011;28;20037;-69
2020/12/14 10:20:40;;;;;;;2.47;2.25;;;;;;;6.71;64.89;95118.75;4990921;28;20053;-70
2020/12/14 10:23:05;;;;;;;2.00;1.85;;;;;;;6.71;64.63;95113.47;4990208;28;20447;-66
2020/12/14 10:25:31;;;;;;;1.88;1.73;;;;;;;6.91;64.02;95125.69;4975849;28;20542;-76
2020/12/14 10:27:56;;;;;;;2.42;2.22;;;;;;;7.04;63.63;95138.22;4973831;28;20044;-70
2020/12/14 10:30:21;;;;;;;3.13;2.00;;;;;;;7.01;64.33;95119.47;4991058;28;20035;-81
2020/12/14 10:32:47;;;;;;;2.08;1.98;;;;;;;7.15;63.47;95132.81;4972750;28;20045;-74
2020/12/14 10:35:12;;;;;;;2.83;1.98;;;;;;;7.19;63.83;95133.84;4990497;28;20039;-74
2020/12/14 10:37:38;;;;;;;2.17;1.90;;;;;;;7.17;62.47;95118.25;4992977;28;20131;-74
2020/12/14 10:40:06;;;;;;;2.17;1.98;;;;;;;7.34;62.86;95133.66;4990441;28;20522;-75
2020/12/14 10:42:32;;;;;;;2.63;2.03;;;;;;;7.47;62.55;95143.56;4972898;28;20053;-75
2020/12/14 10:44:59;;;;;;;1.90;1.73;;;;;;;7.37;62.27;95111.94;4990691;28;20046;-74
2020/12/14 10:47:25;;;;;;;1.83;1.73;;;;;;;7.60;61.70;95139.44;4972195;28;20137;-75
2020/12/14 10:49:51;;;;;;;4.30;1.70;;;;;;;7.43;60.99;95112.66;4992347;28;20105;-74
2020/12/14 10:52:17;;;;;;;9.05;2.45;;;;;;;7.67;61.40;95128.47;4972801;28;20748;-74
2020/12/14 10:54:42;;;;;;;2.90;2.10;;;;;;;7.74;61.25;95135.00;4990426;28;20081;-73
2020/12/14 10:57:08;;;;;;;2.50;2.20;;;;;;;7.82;61.06;95141.50;4990537;28;20496;-74
2020/12/14 10:59:34;;;;;;;2.88;1.75;;;;;;;7.84;61.09;95138.59;4990227;28;20038;-75
2020/12/14 11:01:59;;;;;;;1.83;1.40;;;;;;;7.67;59.68;95102.78;4989397;28;20125;-75
2020/12/14 11:04:24;;;;;;;2.30;2.10;;;;;;;7.90;59.89;95110.97;4992349;28;20519;-75
2020/12/14 11:06:50;;;;;;;2.70;2.33;;;;;;;8.11;60.06;95136.06;4973123;28;20149;-75
2020/12/14 11:09:15;;;;;;;2.50;2.20;;;;;;;8.08;59.96;95118.88;4990176;28;20050;-74
2020/12/14 11:11:40;;;;;;;2.28;2.03;;;;;;;8.04;59.35;95104.66;4990157;28;20141;-75
2020/12/14 11:14:05;;;;;;;1.85;1.75;;;;;;;8.17;59.39;95107.63;4971405;28;20104;-73
2020/12/14 11:16:32;;;;;;;2.72;2.17;;;;;;;8.46;59.79;95140.06;4992357;28;20113;-73
2020/12/14 11:18:58;;;;;;;1.92;1.60;;;;;;;8.43;58.95;95110.69;4972671;28;20034;-72
2020/12/14 11:21:24;;;;;;;2.10;1.85;;;;;;;8.64;58.37;95119.88;4972395;28;20106;-72
2020/12/14 11:23:49;;;;;;;2.45;2.25;;;;;;;8.53;56.85;95113.19;4989716;28;20042;-72
2020/12/14 11:26:14;;;;;;;2.22;2.03;;;;;;;8.67;57.47;95100.75;4990016;28;20132;-72
2020/12/14 11:28:40;;;;;;;3.15;2.13;;;;;;;8.96;57.71;95118.28;4974348;28;20029;-69
2020/12/14 11:31:07;;;;;;;2.75;2.28;;;;;;;8.76;57.20;95069.81;4989742;28;20485;-71
2020/12/14 11:33:34;;;;;;;5.20;2.38;;;;;;;9.13;57.22;95107.06;4971892;28;20043;-72